createdAt,value
2023-01-07T00:02:22.380Z,37.77
2023-01-07T00:04:50.944Z,35.23
2023-01-07T00:07:18.824Z,35.47
2023-01-07T00:09:46.711Z,31.50
2023-01-07T00:12:14.942Z,24.60
2023-01-07T00:14:42.665Z,22.60
2023-01-07T00:17:10.519Z,10.57
2023-01-07T00:19:38.692Z,11.37
2023-01-07T00:22:06.575Z,11.27
2023-01-07T00:24:34.514Z,10.70
2023-01-07T00:27:02.718Z,9.50
2023-01-07T00:29:30.617Z,7.13
2023-01-07T00:31:58.722Z,7.83
2023-01-07T00:34:27.029Z,7.53
2023-01-07T00:37:17.935Z,7.60
2023-01-07T00:39:46.243Z,7.67
2023-01-07T00:42:35.037Z,8.57
2023-01-07T00:45:03.266Z,5.20
2023-01-07T00:47:31.452Z,6.27
2023-01-07T00:49:59.425Z,8.37
2023-01-07T00:52:27.686Z,7.43
2023-01-07T00:54:55.632Z,7.40
2023-01-07T00:57:23.510Z,6.47
2023-01-07T00:59:51.906Z,8.75
2023-01-07T01:02:19.900Z,6.90
2023-01-07T01:04:47.938Z,8.35
2023-01-07T01:07:16.267Z,6.30
2023-01-07T01:09:44.177Z,8.85
2023-01-07T01:12:12.694Z,9.52
2023-01-07T01:14:40.900Z,8.75
2023-01-07T01:17:08.906Z,9.88
2023-01-07T01:19:36.770Z,8.37
2023-01-07T01:22:05.155Z,8.40
2023-01-07T01:24:36.142Z,6.77
2023-01-07T01:27:04.783Z,6.57
2023-01-07T01:29:32.493Z,6.43
2023-01-07T01:32:01.480Z,8.13
2023-01-07T01:34:30.710Z,5.73
2023-01-07T01:36:58.670Z,7.60
2023-01-07T01:39:26.925Z,8.33
2023-01-07T01:41:58.203Z,8.10
2023-01-07T01:44:40.872Z,7.43
2023-01-07T01:47:22.616Z,8.73
2023-01-07T01:49:58.174Z,5.93
2023-01-07T01:52:38.122Z,8.23
2023-01-07T01:55:09.047Z,11.47
2023-01-07T01:57:38.974Z,8.63
2023-01-07T02:00:08.221Z,7.80
2023-01-07T02:02:47.624Z,7.83
2023-01-07T02:05:16.744Z,6.70
2023-01-07T02:07:45.084Z,8.27
2023-01-07T02:10:19.812Z,8.43
2023-01-07T02:13:39.108Z,6.20
2023-01-07T02:16:22.894Z,6.80
2023-01-07T02:19:22.723Z,6.50
2023-01-07T02:22:22.916Z,9.30
2023-01-07T02:25:32.128Z,10.27
2023-01-07T02:28:21.485Z,10.63
2023-01-07T02:31:04.632Z,9.47
2023-01-07T02:33:51.049Z,7.07
2023-01-07T02:36:19.398Z,8.73
2023-01-07T02:39:13.014Z,7.00
2023-01-07T02:41:57.193Z,10.40
2023-01-07T02:44:50.494Z,10.13
2023-01-07T02:47:41.665Z,10.87
2023-01-07T02:50:10.212Z,10.27
2023-01-07T02:52:38.850Z,9.50
2023-01-07T02:55:29.849Z,8.27
2023-01-07T02:58:18.654Z,5.43
2023-01-07T03:01:18.290Z,8.30
2023-01-07T03:04:16.291Z,8.50
2023-01-07T03:07:13.096Z,7.27
2023-01-07T03:09:51.183Z,9.93
2023-01-07T03:12:23.880Z,8.83
2023-01-07T03:20:01.779Z,7.97
2023-01-07T03:22:33.227Z,11.17
2023-01-07T03:25:04.174Z,8.47
2023-01-07T03:27:36.171Z,9.18
2023-01-07T03:30:09.802Z,8.80
2023-01-07T03:33:14.115Z,6.80
2023-01-07T03:35:48.313Z,6.47
2023-01-07T03:38:19.021Z,6.85
2023-01-07T03:40:47.626Z,8.27
2023-01-07T03:43:20.279Z,7.63
2023-01-07T03:45:50.961Z,7.40
2023-01-07T03:48:18.983Z,10.30
2023-01-07T03:50:47.301Z,8.37
2023-01-07T03:53:15.464Z,5.57
2023-01-07T03:55:45.153Z,6.20
2023-01-07T03:58:12.947Z,7.90
2023-01-07T04:00:41.241Z,8.40
2023-01-07T04:03:11.810Z,6.40
2023-01-07T04:05:40.608Z,7.13
2023-01-07T04:08:08.824Z,8.30
2023-01-07T04:10:37.290Z,8.97
2023-01-07T04:13:08.200Z,7.40
2023-01-07T04:15:36.172Z,6.80
2023-01-07T04:18:04.841Z,6.50
2023-01-07T04:20:33.427Z,8.57
2023-01-07T04:23:01.308Z,9.67
2023-01-07T04:25:31.837Z,7.80
2023-01-07T04:27:59.950Z,7.93
2023-01-07T04:30:27.799Z,5.53
2023-01-07T04:32:56.077Z,5.97
2023-01-07T04:35:24.245Z,4.53
2023-01-07T04:37:52.515Z,5.57
2023-01-07T04:40:21.735Z,7.17
2023-01-07T04:42:49.911Z,4.07
2023-01-07T04:45:20.973Z,5.93
2023-01-07T04:47:49.897Z,7.43
2023-01-07T04:50:18.472Z,5.13
2023-01-07T04:52:47.076Z,5.43
2023-01-07T04:55:16.225Z,5.27
2023-01-07T04:57:44.729Z,6.63
2023-01-07T05:00:13.801Z,5.93
2023-01-07T05:02:42.375Z,6.37
2023-01-07T05:05:11.607Z,7.43
2023-01-07T05:07:40.322Z,8.20
2023-01-07T05:10:09.815Z,7.17
2023-01-07T05:12:38.168Z,6.20
2023-01-07T05:15:08.120Z,8.50
2023-01-07T05:17:37.422Z,5.80
2023-01-07T05:20:08.076Z,8.50
2023-01-07T05:22:36.867Z,5.90
2023-01-07T05:25:05.489Z,6.03
2023-01-07T05:27:33.553Z,6.73
2023-01-07T05:30:03.812Z,3.07
2023-01-07T05:32:31.935Z,3.70
2023-01-07T05:35:04.106Z,7.17
2023-01-07T05:37:32.380Z,6.93
2023-01-07T05:40:00.664Z,6.73
2023-01-07T05:42:35.658Z,5.20
2023-01-07T05:45:08.595Z,3.67
2023-01-07T05:47:39.512Z,6.25
2023-01-07T05:50:07.979Z,4.87
2023-01-07T05:52:35.846Z,4.33
2023-01-07T05:55:03.958Z,5.23
2023-01-07T05:57:32.531Z,6.43
2023-01-07T06:00:00.593Z,4.78
2023-01-07T06:02:31.627Z,5.78
2023-01-07T06:04:59.804Z,9.80
2023-01-07T06:07:27.743Z,6.57
2023-01-07T06:09:59.397Z,13.95
2023-01-07T06:12:28.549Z,11.38
2023-01-07T06:14:56.493Z,15.02
2023-01-07T06:17:24.362Z,17.12
2023-01-07T06:19:52.771Z,15.35
2023-01-07T06:22:20.824Z,13.90
2023-01-07T06:24:48.769Z,12.80
2023-01-07T06:27:20.130Z,11.48
2023-01-07T06:29:47.903Z,11.70
2023-01-07T06:32:19.211Z,8.57
2023-01-07T06:34:47.205Z,10.83
2023-01-07T06:37:15.205Z,14.07
2023-01-07T06:39:43.357Z,13.57
2023-01-07T06:42:11.181Z,12.70
2023-01-07T06:44:42.195Z,10.07
2023-01-07T06:47:10.216Z,10.53
2023-01-07T06:49:40.989Z,9.93
2023-01-07T06:52:11.879Z,10.10
2023-01-07T06:54:40.103Z,16.73
2023-01-07T06:57:07.964Z,14.17
2023-01-07T06:59:35.994Z,11.20
2023-01-07T07:02:04.340Z,8.03
2023-01-07T07:04:32.294Z,11.20
2023-01-07T07:07:00.225Z,10.37
2023-01-07T07:09:31.295Z,7.67
2023-01-07T07:11:59.258Z,7.50
2023-01-07T07:14:27.155Z,10.70
2023-01-07T07:16:55.907Z,20.90
2023-01-07T07:19:23.795Z,13.97
2023-01-07T07:21:54.471Z,9.60
2023-01-07T07:24:22.904Z,9.73
2023-01-07T07:26:51.375Z,7.37
2023-01-07T07:29:21.766Z,7.37
2023-01-07T07:31:50.411Z,5.20
2023-01-07T07:34:18.473Z,5.63
2023-01-07T07:36:46.940Z,4.93
2023-01-07T07:40:42.140Z,7.90
2023-01-07T07:43:11.082Z,5.70
2023-01-07T07:46:00.898Z,4.17
2023-01-07T07:48:30.317Z,4.97
2023-01-07T07:54:18.497Z,5.93
2023-01-07T07:56:48.394Z,2.80
2023-01-07T07:59:19.054Z,6.00
2023-01-07T08:01:48.705Z,7.28
2023-01-07T08:04:28.510Z,5.73
2023-01-07T08:06:56.571Z,5.53
2023-01-07T08:09:24.910Z,5.23
2023-01-07T08:11:56.021Z,5.23
2023-01-07T08:14:24.530Z,7.78
2023-01-07T08:16:52.823Z,6.33
2023-01-07T08:19:21.688Z,8.93
2023-01-07T08:21:53.295Z,7.23
2023-01-07T08:24:21.442Z,5.78
2023-01-07T08:26:51.459Z,3.00
2023-01-07T08:29:19.591Z,9.80
2023-01-07T08:31:48.425Z,3.73
2023-01-07T08:34:17.381Z,5.13
2023-01-07T08:36:45.678Z,7.23
2023-01-07T08:39:13.870Z,3.67
2023-01-07T08:41:42.462Z,5.13
2023-01-07T08:44:10.832Z,5.20
2023-01-07T08:46:40.413Z,6.53
2023-01-07T08:49:11.965Z,7.73
2023-01-07T08:51:40.710Z,6.55
2023-01-07T08:54:10.255Z,3.00
2023-01-07T08:56:38.105Z,2.87
2023-01-07T08:59:08.008Z,6.00
2023-01-07T09:01:37.863Z,5.37
2023-01-07T09:04:07.228Z,7.27
2023-01-07T09:06:36.929Z,6.63
2023-01-07T09:09:05.663Z,8.80
2023-01-07T09:11:36.745Z,3.80
2023-01-07T09:14:08.205Z,4.07
2023-01-07T09:16:40.090Z,5.07
2023-01-07T09:21:42.400Z,4.27
2023-01-07T09:24:14.171Z,5.10
2023-01-07T09:26:45.797Z,5.17
2023-01-07T09:29:16.975Z,4.27
2023-01-07T09:31:47.681Z,4.87
2023-01-07T09:34:20.152Z,4.93
2023-01-07T09:36:50.393Z,5.53
2023-01-07T09:39:20.424Z,7.47
2023-01-07T09:41:54.648Z,5.83
2023-01-07T09:44:45.218Z,4.70
2023-01-07T09:47:24.163Z,4.83
2023-01-07T09:50:02.868Z,4.20
2023-01-07T09:52:48.622Z,4.87
2023-01-07T09:56:10.436Z,6.23
2023-01-07T09:58:32.094Z,3.53
2023-01-07T10:01:08.896Z,3.37
2023-01-07T10:03:49.971Z,4.30
2023-01-07T10:06:26.181Z,5.63
2023-01-07T10:09:39.311Z,8.77
2023-01-07T10:12:30.833Z,5.00
2023-01-07T10:15:08.964Z,3.17
2023-01-07T10:17:52.712Z,6.37
2023-01-07T10:20:23.831Z,5.00
2023-01-07T10:22:59.756Z,5.40
2023-01-07T10:25:44.912Z,4.63
2023-01-07T10:28:32.191Z,4.63
2023-01-07T10:31:04.200Z,7.43
2023-01-07T10:33:34.572Z,4.00
2023-01-07T10:36:20.977Z,9.23
2023-01-07T10:39:14.346Z,7.57
2023-01-07T10:42:18.605Z,4.97
2023-01-07T10:45:17.729Z,5.50
2023-01-07T10:48:21.740Z,7.80
2023-01-07T10:51:10.355Z,4.70
2023-01-07T10:54:03.080Z,4.10
2023-01-07T10:57:19.921Z,6.10
2023-01-07T10:59:54.641Z,7.70
2023-01-07T11:02:29.319Z,6.20
2023-01-07T11:05:03.603Z,7.07
2023-01-07T11:07:46.161Z,3.90
2023-01-07T11:10:36.585Z,5.85
2023-01-07T11:13:17.565Z,4.23
2023-01-07T11:16:19.995Z,6.73
2023-01-07T11:19:04.622Z,6.50
2023-01-07T11:21:54.505Z,8.60
2023-01-07T11:24:37.313Z,8.73
2023-01-07T11:27:17.752Z,11.77
2023-01-07T11:30:13.650Z,7.60
2023-01-07T11:32:58.001Z,6.90
2023-01-07T11:35:30.656Z,7.00
2023-01-07T11:38:03.641Z,4.70
2023-01-07T11:40:33.203Z,5.63
2023-01-07T11:43:27.546Z,6.67
2023-01-07T11:46:21.059Z,5.43
2023-01-07T11:49:01.412Z,9.00
2023-01-07T11:51:43.832Z,8.30
2023-01-07T11:54:26.319Z,8.10
2023-01-07T11:57:13.918Z,7.53
2023-01-07T11:59:43.433Z,8.03
2023-01-07T12:02:27.816Z,9.20
2023-01-07T12:05:24.646Z,8.30
2023-01-07T12:08:00.867Z,7.80
2023-01-07T12:10:45.392Z,9.03
2023-01-07T12:13:25.866Z,8.40
2023-01-07T12:16:09.391Z,6.83
2023-01-07T12:19:01.040Z,6.43
2023-01-07T12:21:36.173Z,8.00
2023-01-07T12:24:36.722Z,8.10
2023-01-07T12:27:26.624Z,10.13
2023-01-07T12:30:29.554Z,12.23
2023-01-07T12:33:01.450Z,11.07
2023-01-07T12:35:49.486Z,15.53
2023-01-07T12:38:35.085Z,12.03
2023-01-07T12:41:11.969Z,8.33
2023-01-07T12:43:56.493Z,9.80
2023-01-07T12:46:51.753Z,8.60
2023-01-07T12:49:29.667Z,7.10
2023-01-07T12:52:13.549Z,7.33
2023-01-07T12:55:28.100Z,8.03
2023-01-07T12:58:08.898Z,8.67
2023-01-07T13:00:54.869Z,10.47
2023-01-07T13:03:50.566Z,9.70
2023-01-07T13:06:45.118Z,8.07
2023-01-07T13:09:30.759Z,6.07
2023-01-07T13:12:41.577Z,7.87
2023-01-07T13:15:43.925Z,5.43
2023-01-07T13:18:18.636Z,7.07
2023-01-07T13:21:07.365Z,14.25
2023-01-07T13:24:13.779Z,8.27
2023-01-07T13:27:02.342Z,15.48
2023-01-07T13:29:32.219Z,7.22
2023-01-07T13:32:27.396Z,4.90
2023-01-07T13:37:52.007Z,17.02
2023-01-07T13:40:51.400Z,17.92
2023-01-07T13:43:48.374Z,16.48
2023-01-07T13:46:32.637Z,16.90
2023-01-07T13:49:04.437Z,6.12
2023-01-07T13:51:41.408Z,7.65
2023-01-07T13:54:13.510Z,6.93
2023-01-07T13:56:42.685Z,15.60
2023-01-07T13:59:49.028Z,12.07
2023-01-07T14:02:24.369Z,10.25
2023-01-07T14:05:06.682Z,16.80
2023-01-07T14:07:57.021Z,16.05
2023-01-07T14:10:32.295Z,20.37
2023-01-07T14:13:20.586Z,18.05
2023-01-07T14:15:53.827Z,12.52
2023-01-07T14:19:08.479Z,9.90
2023-01-07T14:21:42.165Z,7.33
2023-01-07T14:24:24.853Z,20.90
2023-01-07T14:27:31.241Z,19.60
2023-01-07T14:30:22.248Z,18.67
2023-01-07T14:33:05.579Z,9.43
2023-01-07T14:35:39.230Z,25.08
2023-01-07T14:38:33.279Z,22.23
2023-01-07T14:41:09.819Z,23.15
2023-01-07T14:43:45.736Z,17.48
2023-01-07T14:49:04.892Z,11.65
2023-01-07T14:51:51.503Z,11.02
2023-01-07T14:55:00.914Z,16.70
2023-01-07T14:57:56.480Z,23.17
2023-01-07T15:00:48.033Z,14.15
2023-01-07T15:03:54.308Z,12.27
2023-01-07T15:06:38.649Z,18.40
2023-01-07T15:09:40.162Z,20.65
2023-01-07T15:12:46.203Z,23.52
2023-01-07T15:15:54.771Z,10.45
2023-01-07T15:18:26.231Z,11.20
2023-01-07T15:21:34.155Z,30.05
2023-01-07T15:24:21.175Z,29.10
2023-01-07T15:27:29.792Z,27.67
2023-01-07T15:30:19.099Z,25.17
2023-01-07T15:33:30.291Z,26.85
2023-01-07T15:36:07.417Z,23.65
2023-01-07T15:41:34.489Z,21.60
2023-01-07T15:44:29.066Z,20.67
2023-01-07T15:47:00.159Z,14.02
2023-01-07T15:49:32.971Z,15.35
2023-01-07T15:52:23.433Z,15.15
2023-01-07T15:54:52.447Z,14.95
2023-01-07T15:57:35.064Z,18.77
2023-01-07T16:00:13.216Z,16.62
2023-01-07T16:02:46.532Z,16.58
2023-01-07T16:05:20.350Z,17.12
2023-01-07T16:07:56.961Z,20.77
2023-01-07T16:10:33.176Z,16.12
2023-01-07T16:13:21.260Z,21.55
2023-01-07T16:15:59.283Z,23.30
2023-01-07T16:18:36.576Z,17.42
2023-01-07T16:21:15.374Z,22.55
2023-01-07T16:23:50.078Z,21.77
2023-01-07T16:26:44.489Z,23.83
2023-01-07T16:29:29.726Z,15.23
2023-01-07T16:32:02.290Z,26.62
2023-01-07T16:34:34.230Z,38.67
2023-01-07T16:37:05.964Z,35.78
2023-01-07T16:39:49.602Z,27.20
2023-01-07T16:42:27.636Z,29.50
2023-01-07T16:45:00.690Z,14.45
2023-01-07T16:47:36.107Z,25.73
2023-01-07T16:50:23.089Z,22.40
2023-01-07T16:52:58.553Z,18.40
2023-01-07T16:55:54.034Z,25.67
2023-01-07T16:58:30.032Z,28.77
2023-01-07T17:01:09.171Z,24.40
2023-01-07T17:03:53.913Z,26.15
2023-01-07T17:06:42.363Z,26.95
2023-01-07T17:09:37.311Z,52.55
2023-01-07T17:12:06.892Z,26.70
2023-01-07T17:14:46.986Z,40.15
2023-01-07T17:17:26.242Z,26.87
2023-01-07T17:20:17.361Z,37.65
2023-01-07T17:22:52.732Z,29.67
2023-01-07T17:25:31.175Z,22.80
2023-01-07T17:28:07.910Z,34.80
2023-01-07T17:30:41.158Z,30.30
2023-01-07T17:33:19.236Z,27.98
2023-01-07T17:35:53.250Z,25.42
2023-01-07T17:38:25.898Z,24.23
2023-01-07T17:40:55.681Z,36.83
2023-01-07T17:43:36.729Z,38.00
2023-01-07T17:46:12.399Z,23.12
2023-01-07T17:48:45.754Z,21.23
2023-01-07T17:51:14.422Z,18.93
2023-01-07T17:53:51.939Z,31.58
2023-01-07T17:56:23.507Z,29.00
2023-01-07T17:58:56.043Z,36.63
2023-01-07T18:01:26.270Z,28.87
2023-01-07T18:03:57.656Z,38.33
2023-01-07T18:06:30.963Z,34.75
2023-01-07T18:09:08.070Z,35.30
2023-01-07T18:12:03.358Z,35.67
2023-01-07T18:14:36.977Z,42.05
2023-01-07T18:17:10.208Z,44.85
2023-01-07T18:19:44.783Z,40.77
2023-01-07T18:22:15.781Z,47.87
2023-01-07T18:24:45.794Z,41.90
2023-01-07T18:27:18.520Z,41.17
2023-01-07T18:29:53.940Z,40.50
2023-01-07T18:32:29.871Z,35.90
2023-01-07T18:35:00.739Z,37.63
2023-01-07T18:37:34.187Z,31.00
2023-01-07T18:40:10.744Z,25.70
2023-01-07T18:42:41.903Z,17.57
2023-01-07T18:45:17.483Z,29.07
2023-01-07T18:47:47.694Z,23.83
2023-01-07T18:50:19.508Z,27.60
2023-01-07T18:52:48.905Z,27.93
2023-01-07T18:55:21.288Z,28.92
2023-01-07T18:57:53.579Z,23.33
2023-01-07T19:00:26.855Z,25.50
2023-01-07T19:05:31.967Z,22.00
2023-01-07T19:08:02.600Z,21.80
2023-01-07T19:10:33.628Z,21.73
2023-01-07T19:13:02.987Z,25.30
2023-01-07T19:15:38.857Z,25.13
2023-01-07T19:18:10.756Z,17.98
2023-01-07T19:20:44.908Z,20.47
2023-01-07T19:23:19.661Z,22.80
2023-01-07T19:25:59.385Z,19.27
2023-01-07T19:28:32.242Z,23.67
2023-01-07T19:31:09.000Z,17.70
2023-01-07T19:33:45.201Z,26.12
2023-01-07T19:36:17.886Z,18.60
2023-01-07T19:38:51.577Z,17.75
2023-01-07T19:41:27.449Z,19.12
2023-01-07T19:44:02.001Z,19.43
2023-01-07T19:46:35.017Z,18.37
2023-01-07T19:49:13.059Z,16.53
2023-01-07T19:51:46.081Z,17.05
2023-01-07T19:54:20.059Z,15.43
2023-01-07T19:56:54.480Z,17.55
2023-01-07T19:59:23.524Z,14.87
2023-01-07T20:01:55.818Z,30.48
2023-01-07T20:04:28.812Z,25.75
2023-01-07T20:06:58.984Z,27.70
2023-01-07T20:09:31.238Z,25.12
2023-01-07T20:12:00.387Z,19.33
2023-01-07T20:14:30.092Z,23.55
2023-01-07T20:16:58.978Z,13.43
2023-01-07T20:19:31.422Z,16.55
2023-01-07T20:22:00.961Z,28.87
2023-01-07T20:24:31.238Z,30.92
2023-01-07T20:27:00.277Z,25.95
2023-01-07T20:29:29.560Z,41.30
2023-01-07T20:31:58.345Z,36.25
2023-01-07T20:34:29.680Z,37.47
2023-01-07T20:36:59.233Z,27.33
2023-01-07T20:39:28.044Z,16.83
2023-01-07T20:41:56.651Z,13.52
2023-01-07T20:44:25.663Z,15.82
2023-01-07T20:46:58.959Z,19.77
2023-01-07T20:49:26.943Z,16.95
2023-01-07T20:51:55.439Z,24.63
2023-01-07T20:54:23.774Z,13.38
2023-01-07T20:56:52.473Z,17.45
2023-01-07T20:59:22.795Z,21.70
2023-01-07T21:01:51.285Z,29.70
2023-01-07T21:04:20.501Z,20.35
2023-01-07T21:06:59.699Z,21.40
2023-01-07T21:09:28.257Z,21.33
2023-01-07T21:11:56.818Z,16.80
2023-01-07T21:14:24.540Z,16.90
2023-01-07T21:16:52.518Z,15.65
2023-01-07T21:19:21.048Z,20.60
2023-01-07T21:21:51.893Z,15.90
2023-01-07T21:24:20.535Z,16.85
2023-01-07T21:26:49.830Z,15.80
2023-01-07T21:29:18.510Z,17.47
2023-01-07T21:31:47.315Z,17.50
2023-01-07T21:34:16.007Z,12.10
2023-01-07T21:36:44.165Z,15.33
2023-01-07T21:39:13.471Z,12.90
2023-01-07T21:41:41.355Z,16.50
2023-01-07T21:44:12.477Z,17.23
2023-01-07T21:46:40.970Z,17.10
2023-01-07T21:49:12.229Z,16.13
2023-01-07T21:51:40.667Z,20.60
2023-01-07T21:54:09.588Z,16.73
2023-01-07T21:56:37.457Z,17.57
2023-01-07T21:59:05.816Z,20.67
2023-01-07T22:01:33.737Z,21.63
2023-01-07T22:04:03.210Z,19.83
2023-01-07T22:06:33.491Z,24.63
2023-01-07T22:09:07.680Z,16.50
2023-01-07T22:11:38.907Z,21.53
2023-01-07T22:14:07.823Z,15.27
2023-01-07T22:16:35.515Z,19.50
2023-01-07T22:19:04.035Z,19.03
2023-01-07T22:21:32.640Z,22.47
2023-01-07T22:24:00.526Z,17.30
2023-01-07T22:26:28.352Z,15.83
2023-01-07T22:29:06.790Z,14.67
2023-01-07T22:31:37.100Z,12.90
2023-01-07T22:34:07.090Z,11.73
2023-01-07T22:36:34.872Z,9.60
2023-01-07T22:39:15.929Z,12.03
2023-01-07T22:41:44.753Z,11.10
2023-01-07T22:44:21.457Z,9.87
2023-01-07T22:46:52.907Z,11.10
2023-01-07T22:49:24.870Z,12.33
2023-01-07T22:51:53.409Z,11.67
2023-01-07T22:54:21.500Z,9.70
2023-01-07T22:56:50.248Z,7.60
2023-01-07T22:59:18.337Z,14.70
2023-01-07T23:01:46.178Z,17.13
2023-01-07T23:04:13.892Z,16.20
2023-01-07T23:06:42.239Z,16.20
2023-01-07T23:09:10.024Z,16.00
2023-01-07T23:11:49.818Z,16.67
2023-01-07T23:14:22.540Z,14.43
2023-01-07T23:16:51.853Z,20.17
2023-01-07T23:19:21.250Z,15.13
2023-01-07T23:21:51.536Z,19.63
2023-01-07T23:24:20.291Z,11.17
2023-01-07T23:26:50.735Z,14.13
2023-01-07T23:29:19.693Z,17.63
2023-01-07T23:31:50.804Z,9.67
2023-01-07T23:34:19.616Z,15.00
2023-01-07T23:36:47.448Z,12.83
2023-01-07T23:39:15.459Z,12.50
2023-01-07T23:41:43.686Z,16.53
2023-01-07T23:44:11.596Z,14.37
2023-01-07T23:46:39.489Z,15.63
2023-01-07T23:49:07.767Z,14.17
2023-01-07T23:51:35.612Z,16.23
2023-01-07T23:54:06.601Z,16.83
2023-01-07T23:56:35.254Z,14.10
2023-01-07T23:59:03.397Z,14.13
